Time;durP1;ratioP1;P1;durP2;ratioP2;P2;SDS_P1;SDS_P2;PMS_P1;PMS_P2;Temp;Humidity;BMP_temperature;BMP_pressure;BME280_temperature;BME280_humidity;BME280_pressure;Samples;Min_cycle;Max_cycle;Signal;HPM_P1;HPM_P2
2021/08/20 00:01:42;;;;;;;2.80;2.30;;;19.60;69.00;;;;;;5074648;28;20443;-81
2021/08/20 00:04:08;;;;;;;5.90;2.73;;;19.60;69.20;;;;;;5074597;28;20478;-80
2021/08/20 00:06:35;;;;;;;4.73;2.93;;;19.60;69.40;;;;;;5073667;28;20471;-79
2021/08/20 00:09:02;;;;;;;2.83;1.93;;;19.60;70.00;;;;;;5075082;28;20434;-80
2021/08/20 00:11:30;;;;;;;3.80;2.30;;;19.50;70.70;;;;;;5077492;28;20447;-79
2021/08/20 00:13:57;;;;;;;3.10;2.37;;;19.50;71.30;;;;;;5077509;28;20482;-79
2021/08/20 00:16:24;;;;;;;3.40;2.60;;;19.50;72.20;;;;;;5077662;28;20458;-79
2021/08/20 00:18:52;;;;;;;2.20;2.00;;;19.50;72.90;;;;;;5077050;28;20498;-79
2021/08/20 00:21:19;;;;;;;4.40;2.17;;;19.40;73.20;;;;;;5073444;28;20449;-79
2021/08/20 00:23:46;;;;;;;3.27;2.20;;;19.40;73.70;;;;;;5071699;28;20479;-79
2021/08/20 00:26:13;;;;;;;2.00;1.80;;;19.30;74.00;;;;;;5071171;28;20477;-80
2021/08/20 00:28:40;;;;;;;3.57;2.60;;;19.40;74.30;;;;;;5070561;28;20512;-81
2021/08/20 00:31:07;;;;;;;5.23;2.50;;;19.30;74.70;;;;;;5071545;28;20429;-80
2021/08/20 00:33:35;;;;;;;3.87;2.30;;;19.30;75.10;;;;;;5068988;28;20438;-81
2021/08/20 00:36:04;;;;;;;3.43;2.27;;;19.30;75.10;;;;;;5066555;28;20534;-80
2021/08/20 00:38:34;;;;;;;2.50;2.30;;;19.30;74.10;;;;;;5070860;28;20487;-79
2021/08/20 00:41:01;;;;;;;2.73;1.90;;;19.20;73.80;;;;;;5072934;28;20413;-80
2021/08/20 00:43:29;;;;;;;2.80;2.23;;;19.20;74.30;;;;;;5070599;28;20485;-79
2021/08/20 00:45:56;;;;;;;2.10;2.00;;;19.20;74.30;;;;;;5076778;28;20491;-80
2021/08/20 00:48:24;;;;;;;2.37;2.17;;;19.30;74.10;;;;;;5077179;28;20442;-79
2021/08/20 00:50:56;;;;;;;4.07;2.10;;;19.30;73.00;;;;;;5077321;28;20489;-79
2021/08/20 00:53:26;;;;;;;2.47;2.20;;;19.20;71.50;;;;;;5077324;28;20434;-79
2021/08/20 00:55:53;;;;;;;2.60;2.40;;;19.20;70.40;;;;;;5077172;28;20422;-79
2021/08/20 00:58:20;;;;;;;2.90;2.10;;;19.20;70.10;;;;;;5077365;28;20453;-79
2021/08/20 01:00:47;;;;;;;2.40;2.20;;;19.20;70.50;;;;;;5071614;28;20836;-80
2021/08/20 01:03:14;;;;;;;5.20;2.17;;;19.20;71.10;;;;;;5072245;28;20514;-80
2021/08/20 01:05:41;;;;;;;3.77;2.27;;;19.20;72.10;;;;;;5073843;28;20465;-80
2021/08/20 01:08:08;;;;;;;2.33;2.03;;;19.20;73.40;;;;;;5073504;28;20434;-80
2021/08/20 01:10:37;;;;;;;2.20;2.00;;;19.30;73.90;;;;;;5074141;28;20479;-80
2021/08/20 01:13:05;;;;;;;2.37;2.17;;;19.30;74.50;;;;;;5073406;28;20484;-81
2021/08/20 01:15:32;;;;;;;1.83;1.73;;;19.20;74.60;;;;;;5073440;28;20497;-80
2021/08/20 01:17:59;;;;;;;2.77;2.10;;;19.20;75.40;;;;;;5073894;28;20553;-80
2021/08/20 01:20:26;;;;;;;2.43;1.90;;;19.20;76.00;;;;;;5073287;28;20504;-81
2021/08/20 01:22:53;;;;;;;2.60;2.37;;;19.10;75.30;;;;;;5073070;28;20438;-80
2021/08/20 01:25:22;;;;;;;3.90;2.10;;;19.10;75.10;;;;;;5073221;28;20474;-80
2021/08/20 01:27:49;;;;;;;2.90;1.93;;;19.20;74.80;;;;;;5073296;28;20451;-80
2021/08/20 01:30:16;;;;;;;2.13;1.93;;;19.10;73.40;;;;;;5073244;28;20812;-80
2021/08/20 01:32:43;;;;;;;2.60;2.20;;;19.10;72.70;;;;;;5073524;28;20786;-81
2021/08/20 01:35:10;;;;;;;2.60;2.40;;;19.10;72.20;;;;;;5074576;28;20545;-81
2021/08/20 01:37:37;;;;;;;1.80;1.70;;;19.00;71.90;;;;;;5073403;28;20493;-81
2021/08/20 01:40:06;;;;;;;4.03;2.00;;;19.00;72.30;;;;;;5072411;28;20457;-82
2021/08/20 01:42:34;;;;;;;2.67;2.33;;;19.00;72.90;;;;;;5072553;28;20442;-82
2021/08/20 01:45:01;;;;;;;6.83;1.90;;;19.00;73.60;;;;;;5071508;28;20481;-82
2021/08/20 01:47:28;;;;;;;4.00;2.33;;;18.90;74.40;;;;;;5071991;28;20456;-81
2021/08/20 01:49:55;;;;;;;2.60;1.80;;;18.90;75.70;;;;;;5071206;28;20454;-82
2021/08/20 01:52:22;;;;;;;3.00;2.10;;;18.90;75.70;;;;;;5071477;28;20454;-81
2021/08/20 01:54:49;;;;;;;2.97;1.80;;;19.00;75.80;;;;;;5073110;28;20459;-81
2021/08/20 01:57:16;;;;;;;2.97;2.60;;;19.00;75.80;;;;;;5077006;28;20460;-80
2021/08/20 01:59:44;;;;;;;2.03;1.80;;;19.00;75.80;;;;;;5079753;28;20477;-81
2021/08/20 02:02:11;;;;;;;4.03;2.27;;;19.00;75.80;;;;;;5074009;28;20413;-80
2021/08/20 02:04:38;;;;;;;3.47;2.10;;;19.00;75.80;;;;;;5079862;28;20459;-80
2021/08/20 02:07:05;;;;;;;2.60;2.40;;;18.90;75.70;;;;;;5079046;28;20449;-81
2021/08/20 02:09:32;;;;;;;4.20;2.37;;;18.90;75.70;;;;;;5073336;28;20432;-80
2021/08/20 02:11:59;;;;;;;2.60;1.97;;;18.90;75.70;;;;;;5072860;28;20519;-80
2021/08/20 02:14:26;;;;;;;2.63;2.20;;;18.90;75.70;;;;;;5072612;28;20463;-80
2021/08/20 02:16:54;;;;;;;2.10;2.00;;;18.90;76.00;;;;;;5073705;28;20455;-80
2021/08/20 02:19:21;;;;;;;2.90;1.80;;;18.90;75.70;;;;;;5073813;28;20487;-79
2021/08/20 02:21:48;;;;;;;5.20;2.43;;;18.90;76.70;;;;;;5074774;28;20462;-80
2021/08/20 02:24:15;;;;;;;2.97;2.13;;;18.90;76.70;;;;;;5074050;28;20482;-80
2021/08/20 02:26:42;;;;;;;5.67;2.43;;;18.80;77.50;;;;;;5074556;28;20425;-81
2021/08/20 02:29:09;;;;;;;2.97;1.80;;;18.80;78.40;;;;;;5074291;28;20456;-80
2021/08/20 02:31:36;;;;;;;4.13;2.00;;;18.70;78.30;;;;;;5073400;28;20462;-81
2021/08/20 02:34:04;;;;;;;2.50;2.10;;;18.80;78.60;;;;;;5073249;28;20500;-80
2021/08/20 02:36:31;;;;;;;2.67;2.27;;;18.80;78.10;;;;;;5073018;28;20458;-80
2021/08/20 02:38:58;;;;;;;3.63;2.70;;;18.80;78.30;;;;;;5073419;28;20481;-80
2021/08/20 02:41:25;;;;;;;2.73;2.53;;;18.80;78.10;;;;;;5073142;28;20488;-80
2021/08/20 02:43:52;;;;;;;2.50;1.93;;;18.80;78.00;;;;;;5073700;28;20509;-80
2021/08/20 02:46:20;;;;;;;2.73;2.53;;;18.80;78.10;;;;;;5076262;28;20466;-81
2021/08/20 02:48:47;;;;;;;3.60;2.30;;;18.80;77.90;;;;;;5073124;28;20530;-80
2021/08/20 02:51:15;;;;;;;1.93;1.83;;;18.70;78.40;;;;;;5073479;28;20438;-80
2021/08/20 02:53:43;;;;;;;2.47;2.03;;;18.80;78.10;;;;;;5072551;28;20452;-80
2021/08/20 02:56:10;;;;;;;2.70;1.93;;;18.70;77.00;;;;;;5070662;28;20433;-79
2021/08/20 02:58:37;;;;;;;2.43;2.00;;;18.80;76.40;;;;;;5074678;28;20485;-78
2021/08/20 03:01:04;;;;;;;2.93;2.50;;;18.80;76.30;;;;;;5074561;28;20441;-80
2021/08/20 03:03:31;;;;;;;2.30;2.00;;;18.80;76.70;;;;;;5074703;28;20445;-80
2021/08/20 03:05:57;;;;;;;2.57;2.07;;;18.80;76.60;;;;;;5073628;28;20468;-80
2021/08/20 03:08:26;;;;;;;2.47;1.90;;;18.70;76.00;;;;;;5074267;28;20530;-80
2021/08/20 03:10:53;;;;;;;3.50;2.23;;;18.70;76.60;;;;;;5072210;28;20458;-80
2021/08/20 03:13:20;;;;;;;2.87;2.30;;;18.70;77.00;;;;;;5071348;28;20474;-80
2021/08/20 03:15:47;;;;;;;2.40;2.20;;;18.70;76.00;;;;;;5071120;28;20509;-80
2021/08/20 03:18:14;;;;;;;3.47;2.30;;;18.70;75.50;;;;;;5066502;28;20494;-81
2021/08/20 03:20:41;;;;;;;3.30;2.10;;;18.70;75.50;;;;;;5062927;28;20960;-81
2021/08/20 03:23:08;;;;;;;2.40;2.20;;;18.70;75.00;;;;;;5075579;28;20487;-79
2021/08/20 03:25:37;;;;;;;2.30;1.90;;;18.70;75.50;;;;;;5076580;28;20454;-79
2021/08/20 03:28:06;;;;;;;3.30;2.33;;;18.70;75.50;;;;;;5077676;28;20437;-81
2021/08/20 03:30:33;;;;;;;2.60;2.37;;;18.70;77.10;;;;;;5068348;28;20479;-80
2021/08/20 03:33:00;;;;;;;2.50;2.30;;;18.70;77.90;;;;;;5062869;28;20486;-81
2021/08/20 03:35:27;;;;;;;2.37;1.97;;;18.60;78.70;;;;;;5061933;28;20504;-80
2021/08/20 03:37:54;;;;;;;2.50;2.30;;;18.70;79.10;;;;;;5064070;28;20486;-80
2021/08/20 03:40:24;;;;;;;3.27;2.30;;;18.60;79.40;;;;;;5068300;28;20463;-80
2021/08/20 03:42:52;;;;;;;7.30;2.90;;;18.60;79.80;;;;;;5071725;28;20482;-81
2021/08/20 03:45:19;;;;;;;2.20;1.90;;;18.50;80.00;;;;;;5070655;28;20475;-80
2021/08/20 03:47:47;;;;;;;2.50;2.30;;;18.60;79.40;;;;;;5071674;28;20549;-80
2021/08/20 03:50:14;;;;;;;2.40;2.20;;;18.60;78.30;;;;;;5070453;28;20519;-80
2021/08/20 03:52:41;;;;;;;2.83;2.07;;;18.60;77.20;;;;;;5070833;28;20449;-80
2021/08/20 03:55:09;;;;;;;4.57;2.30;;;18.60;75.50;;;;;;5076757;28;20485;-80
2021/08/20 03:57:36;;;;;;;2.27;2.07;;;18.50;75.40;;;;;;5077456;28;20439;-81
2021/08/20 04:00:06;;;;;;;3.30;2.20;;;18.50;75.30;;;;;;5073210;28;20538;-81
2021/08/20 04:02:33;;;;;;;2.40;2.00;;;18.50;75.40;;;;;;5066769;28;20441;-81
2021/08/20 04:05:01;;;;;;;4.70;2.30;;;18.50;75.30;;;;;;5066275;28;20485;-82
2021/08/20 04:07:28;;;;;;;2.93;2.07;;;18.50;74.90;;;;;;5067039;28;20472;-82
2021/08/20 04:09:55;;;;;;;1.93;1.73;;;18.50;74.20;;;;;;5067885;28;20463;-81
2021/08/20 04:12:22;;;;;;;3.53;2.30;;;18.50;74.50;;;;;;5067011;28;20456;-82
2021/08/20 04:14:48;;;;;;;2.33;2.13;;;18.50;74.50;;;;;;5067215;28;20512;-81
2021/08/20 04:17:17;;;;;;;2.27;2.07;;;18.50;74.10;;;;;;5066517;28;20795;-82
2021/08/20 04:19:44;;;;;;;3.07;2.50;;;18.60;73.90;;;;;;5067835;28;20455;-80
2021/08/20 04:22:11;;;;;;;3.30;2.20;;;18.50;73.50;;;;;;5067681;28;20457;-81
2021/08/20 04:24:38;;;;;;;1.83;1.73;;;18.50;73.30;;;;;;5067335;28;20445;-80
2021/08/20 04:27:05;;;;;;;3.17;2.30;;;18.50;73.30;;;;;;5067290;28;20488;-82
2021/08/20 04:29:32;;;;;;;2.50;2.20;;;18.50;73.30;;;;;;5066902;28;20473;-81
2021/08/20 04:31:59;;;;;;;3.43;2.37;;;18.50;73.30;;;;;;5067847;28;20928;-82
2021/08/20 04:34:28;;;;;;;4.70;2.37;;;18.50;73.00;;;;;;5068157;28;20475;-82
2021/08/20 04:36:55;;;;;;;4.23;2.10;;;18.40;73.20;;;;;;5069079;28;20461;-82
2021/08/20 04:39:22;;;;;;;2.03;1.83;;;18.40;74.00;;;;;;5070949;28;20495;-81
2021/08/20 04:41:49;;;;;;;4.60;2.33;;;18.40;74.40;;;;;;5076771;28;20411;-81
2021/08/20 04:44:16;;;;;;;3.07;2.67;;;18.40;74.70;;;;;;5079690;28;20480;-80
2021/08/20 04:46:43;;;;;;;5.30;2.60;;;18.40;74.60;;;;;;5081479;28;20950;-79
2021/08/20 04:49:10;;;;;;;2.80;2.20;;;18.40;75.00;;;;;;5080369;28;20427;-80
2021/08/20 04:51:38;;;;;;;2.80;2.20;;;18.50;75.10;;;;;;5074832;28;20448;-80
2021/08/20 04:54:06;;;;;;;2.87;2.57;;;18.60;74.30;;;;;;5078206;28;20469;-80
2021/08/20 04:56:33;;;;;;;6.50;3.00;;;18.60;73.90;;;;;;5081238;28;20436;-79
2021/08/20 04:59:00;;;;;;;4.37;2.33;;;18.60;74.70;;;;;;5079273;28;20473;-78
2021/08/20 05:01:27;;;;;;;2.77;2.57;;;18.70;74.70;;;;;;5081254;28;20443;-80
2021/08/20 05:03:54;;;;;;;4.00;2.63;;;18.70;74.50;;;;;;5078739;28;20492;-81
2021/08/20 05:06:21;;;;;;;5.07;3.07;;;18.80;74.00;;;;;;5069686;28;20507;-81
2021/08/20 05:08:49;;;;;;;3.80;2.27;;;18.80;73.30;;;;;;5065883;28;20457;-81
2021/08/20 05:11:16;;;;;;;2.83;2.63;;;18.80;73.40;;;;;;5064866;28;20507;-80
2021/08/20 05:13:43;;;;;;;2.87;2.67;;;18.70;74.50;;;;;;5063206;28;20449;-80
2021/08/20 05:16:10;;;;;;;6.10;2.53;;;18.70;75.50;;;;;;5071521;28;20556;-81
2021/08/20 05:18:37;;;;;;;3.50;2.70;;;18.70;75.50;;;;;;5073684;28;20465;-82
2021/08/20 05:21:04;;;;;;;6.23;2.57;;;18.70;75.50;;;;;;5076429;28;20468;-79
2021/08/20 05:23:31;;;;;;;2.40;2.20;;;18.70;75.50;;;;;;5074793;28;20525;-80
2021/08/20 05:25:59;;;;;;;3.33;2.70;;;18.70;75.50;;;;;;5067660;28;20448;-79
2021/08/20 05:28:26;;;;;;;3.40;2.90;;;18.80;76.30;;;;;;5066227;28;20492;-79
2021/08/20 05:30:53;;;;;;;4.67;2.70;;;18.70;75.50;;;;;;5065910;28;20465;-79
2021/08/20 05:33:20;;;;;;;2.63;2.37;;;18.70;75.50;;;;;;5065962;28;20451;-79
2021/08/20 05:35:47;;;;;;;2.70;2.50;;;18.70;75.50;;;;;;5063334;28;20474;-81
2021/08/20 05:38:15;;;;;;;2.80;2.40;;;18.80;75.60;;;;;;5066294;28;20431;-81
2021/08/20 05:40:42;;;;;;;2.87;2.67;;;18.80;75.60;;;;;;5073326;28;20470;-81
2021/08/20 05:43:10;;;;;;;3.13;2.83;;;18.90;75.70;;;;;;5080236;28;20446;-85
2021/08/20 05:45:38;;;;;;;6.43;2.77;;;18.90;75.70;;;;;;5080444;28;20466;-84
2021/08/20 05:48:06;;;;;;;3.10;2.90;;;18.90;75.70;;;;;;5080103;28;20480;-84
2021/08/20 05:50:33;;;;;;;2.70;2.50;;;19.00;75.80;;;;;;5078240;28;20452;-85
2021/08/20 05:53:00;;;;;;;2.60;2.40;;;19.20;74.20;;;;;;5079400;28;20491;-81
2021/08/20 05:55:30;;;;;;;4.60;2.67;;;19.30;73.90;;;;;;5075519;28;20475;-80
2021/08/20 05:57:57;;;;;;;3.00;2.70;;;19.40;73.00;;;;;;5076919;28;20463;-80
2021/08/20 06:00:26;;;;;;;4.07;2.53;;;19.50;72.40;;;;;;5068997;28;20470;-80
2021/08/20 06:02:53;;;;;;;3.60;3.17;;;19.60;72.10;;;;;;5072619;28;20427;-82
2021/08/20 06:05:21;;;;;;;3.23;2.93;;;19.60;71.50;;;;;;5079640;28;20474;-82
2021/08/20 06:07:48;;;;;;;5.20;3.27;;;19.60;71.30;;;;;;5079892;28;20440;-85
2021/08/20 06:10:15;;;;;;;4.30;3.07;;;19.70;71.60;;;;;;5079610;28;20453;-84
2021/08/20 06:12:42;;;;;;;3.40;3.10;;;19.80;70.80;;;;;;5079838;28;20452;-83
2021/08/20 06:15:10;;;;;;;6.23;3.30;;;19.90;70.60;;;;;;5070002;28;20509;-80
2021/08/20 06:17:39;;;;;;;4.43;3.13;;;20.00;70.10;;;;;;5067047;28;20425;-80
2021/08/20 06:20:07;;;;;;;4.47;3.43;;;20.00;70.00;;;;;;5071018;28;20473;-80
2021/08/20 06:22:34;;;;;;;6.27;2.87;;;20.00;70.00;;;;;;5073255;28;20464;-80
2021/08/20 06:25:01;;;;;;;3.30;3.00;;;20.20;69.50;;;;;;5073533;28;20503;-82
2021/08/20 06:27:28;;;;;;;3.50;2.93;;;20.20;69.10;;;;;;5072893;28;20431;-79
2021/08/20 06:29:55;;;;;;;5.40;3.17;;;20.40;68.70;;;;;;5072478;28;20449;-80
2021/08/20 06:32:22;;;;;;;3.83;3.17;;;20.30;68.40;;;;;;5075277;28;20443;-81
2021/08/20 06:34:50;;;;;;;7.23;3.23;;;20.50;68.90;;;;;;5078016;28;20530;-82
2021/08/20 06:37:17;;;;;;;6.30;3.60;;;20.50;68.20;;;;;;5075686;28;20451;-81
2021/08/20 06:39:44;;;;;;;4.73;3.63;;;20.60;68.30;;;;;;5075928;28;20510;-80
2021/08/20 06:42:11;;;;;;;7.33;3.80;;;20.60;68.30;;;;;;5076641;28;20449;-82
2021/08/20 06:44:38;;;;;;;3.80;3.33;;;20.70;68.00;;;;;;5072667;28;20468;-80
2021/08/20 06:47:05;;;;;;;7.47;3.83;;;20.80;67.70;;;;;;5073203;28;20483;-79
2021/08/20 06:49:32;;;;;;;8.23;4.20;;;20.80;67.20;;;;;;5075841;28;20436;-81
2021/08/20 06:52:01;;;;;;;6.37;3.50;;;20.80;67.50;;;;;;5075734;28;20460;-81
2021/08/20 06:54:28;;;;;;;6.17;4.20;;;20.80;67.50;;;;;;5077486;28;20445;-81
2021/08/20 06:56:55;;;;;;;4.60;4.03;;;20.80;67.30;;;;;;5073562;28;20448;-81
2021/08/20 06:59:22;;;;;;;7.00;5.10;;;20.80;67.80;;;;;;5072346;28;20475;-80
2021/08/20 07:01:49;;;;;;;5.90;4.30;;;21.00;67.30;;;;;;5073920;28;20524;-81
2021/08/20 07:04:16;;;;;;;5.90;4.10;;;21.00;66.40;;;;;;5072579;28;20485;-80
2021/08/20 07:06:43;;;;;;;4.77;4.27;;;21.20;65.80;;;;;;5070169;28;20425;-81
2021/08/20 07:09:11;;;;;;;5.10;4.60;;;21.30;65.00;;;;;;5071424;28;20941;-82
2021/08/20 07:11:38;;;;;;;4.23;3.83;;;21.40;64.10;;;;;;5072365;28;20452;-81
2021/08/20 07:14:05;;;;;;;5.60;4.00;;;21.50;63.60;;;;;;5070825;28;20448;-81
2021/08/20 07:16:32;;;;;;;6.03;4.03;;;21.50;63.30;;;;;;5070321;28;20499;-81
2021/08/20 07:18:59;;;;;;;12.77;4.10;;;21.60;62.90;;;;;;5058886;28;20431;-81
2021/08/20 07:21:26;;;;;;;7.43;4.40;;;21.80;61.90;;;;;;5058950;28;20483;-81
2021/08/20 07:23:53;;;;;;;7.03;4.73;;;21.90;60.30;;;;;;5059652;28;20455;-81
2021/08/20 07:26:22;;;;;;;4.47;4.07;;;22.00;60.40;;;;;;5060105;28;20492;-81
2021/08/20 07:28:49;;;;;;;4.67;3.87;;;22.20;60.60;;;;;;5060216;28;20506;-81
2021/08/20 07:31:16;;;;;;;5.60;4.30;;;22.40;55.50;;;;;;5060930;28;20449;-80
2021/08/20 07:33:42;;;;;;;3.77;3.40;;;22.70;55.40;;;;;;5064373;28;20475;-80
2021/08/20 07:36:10;;;;;;;4.57;3.23;;;22.60;56.20;;;;;;5068836;28;20706;-80
2021/08/20 07:38:37;;;;;;;4.57;4.07;;;22.90;55.20;;;;;;5069794;28;20470;-80
2021/08/20 07:41:04;;;;;;;4.93;3.97;;;23.10;55.10;;;;;;5071806;28;20460;-81
2021/08/20 07:43:32;;;;;;;4.03;3.63;;;23.10;54.70;;;;;;5072290;28;20454;-80
2021/08/20 07:45:59;;;;;;;4.47;4.07;;;23.00;54.40;;;;;;5059534;28;20482;-81
2021/08/20 07:48:26;;;;;;;6.63;4.20;;;22.90;53.70;;;;;;5060862;28;20478;-81
2021/08/20 07:50:53;;;;;;;4.73;4.00;;;22.90;53.00;;;;;;5067931;28;20448;-81
2021/08/20 07:53:20;;;;;;;4.00;3.70;;;22.60;55.30;;;;;;5076231;28;20460;-81
2021/08/20 07:55:47;;;;;;;5.13;4.63;;;22.50;54.40;;;;;;5069865;28;20574;-84
2021/08/20 07:58:14;;;;;;;5.50;4.43;;;22.50;55.40;;;;;;5077751;28;20450;-83
2021/08/20 08:00:43;;;;;;;4.90;4.40;;;22.40;55.60;;;;;;5074811;28;20491;-80
2021/08/20 08:03:10;;;;;;;4.23;3.93;;;22.30;54.50;;;;;;5061370;28;20488;-80
2021/08/20 08:05:37;;;;;;;4.10;3.80;;;22.20;54.50;;;;;;5060051;28;20841;-79
2021/08/20 08:08:04;;;;;;;5.23;3.73;;;22.30;53.40;;;;;;5065405;28;20807;-82
2021/08/20 08:10:32;;;;;;;5.20;4.67;;;22.20;53.70;;;;;;5073139;28;20407;-80
2021/08/20 08:12:59;;;;;;;5.63;4.30;;;22.30;53.10;;;;;;5070821;28;20471;-82
2021/08/20 08:15:26;;;;;;;5.07;3.77;;;22.40;52.80;;;;;;5068833;28;20476;-80
2021/08/20 08:17:56;;;;;;;3.90;3.50;;;22.50;52.60;;;;;;5070964;28;20456;-80
2021/08/20 08:20:23;;;;;;;4.23;3.87;;;22.50;51.90;;;;;;5071607;28;20485;-82
2021/08/20 08:22:50;;;;;;;5.03;4.17;;;22.30;52.20;;;;;;5071241;28;20489;-81
2021/08/20 08:25:17;;;;;;;5.00;4.50;;;22.30;51.00;;;;;;5068517;28;20471;-82
2021/08/20 08:27:56;;;;;;;4.30;4.00;;;22.40;51.10;;;;;;5068723;28;20479;-81
2021/08/20 08:30:23;;;;;;;4.90;4.50;;;22.30;51.00;;;;;;5067127;28;20437;-82
2021/08/20 08:32:50;;;;;;;6.23;4.43;;;22.40;51.10;;;;;;5066017;28;20452;-80
2021/08/20 08:35:18;;;;;;;5.30;4.27;;;22.40;51.10;;;;;;5068427;28;20451;-81
2021/08/20 08:37:45;;;;;;;6.27;3.83;;;22.50;51.20;;;;;;5069316;28;20480;-80
2021/08/20 08:40:13;;;;;;;6.17;4.40;;;22.70;51.40;;;;;;5070256;28;20459;-82
2021/08/20 08:42:40;;;;;;;4.30;4.00;;;22.90;50.60;;;;;;5071304;28;20404;-84
2021/08/20 08:45:08;;;;;;;4.40;4.00;;;22.90;49.20;;;;;;5077632;28;20452;-83
2021/08/20 08:47:36;;;;;;;8.37;3.83;;;23.10;48.80;;;;;;5075115;28;20468;-80
2021/08/20 08:50:06;;;;;;;4.00;3.60;;;23.00;48.40;;;;;;5068291;28;20797;-80
2021/08/20 08:52:35;;;;;;;5.30;4.40;;;22.80;49.80;;;;;;5070027;28;20453;-81
2021/08/20 08:55:03;;;;;;;4.00;3.60;;;22.70;49.70;;;;;;5070819;28;20541;-80
2021/08/20 08:57:31;;;;;;;4.07;3.60;;;22.90;48.70;;;;;;5066852;28;20428;-81
2021/08/20 08:59:58;;;;;;;7.27;4.30;;;22.80;48.50;;;;;;5065203;28;20490;-81
2021/08/20 09:02:26;;;;;;;6.50;3.50;;;23.00;47.40;;;;;;5062027;28;20456;-80
2021/08/20 09:04:55;;;;;;;5.37;3.80;;;23.30;45.50;;;;;;5062209;28;20448;-80
2021/08/20 09:07:24;;;;;;;3.83;3.40;;;23.30;45.40;;;;;;5075955;28;20506;-80
2021/08/20 09:10:17;;;;;;;3.40;3.10;;;23.40;45.90;;;;;;5076436;28;20440;-79
2021/08/20 09:12:56;;;;;;;3.67;3.37;;;23.60;45.60;;;;;;5076539;28;20442;-80
2021/08/20 09:15:25;;;;;;;4.87;3.90;;;23.40;45.90;;;;;;5073317;28;20449;-82
2021/08/20 09:17:54;;;;;;;4.27;3.90;;;23.40;46.10;;;;;;5061297;28;20929;-79
2021/08/20 09:20:24;;;;;;;4.10;3.70;;;23.50;45.70;;;;;;5065707;28;20530;-81
2021/08/20 09:22:53;;;;;;;3.60;3.30;;;23.80;45.10;;;;;;5070114;28;20471;-82
2021/08/20 09:25:33;;;;;;;4.23;3.83;;;24.00;43.30;;;;;;5067333;28;20500;-82
2021/08/20 09:28:15;;;;;;;4.37;3.97;;;24.20;43.70;;;;;;5067511;28;20961;-83
2021/08/20 09:30:43;;;;;;;5.33;3.53;;;24.30;43.60;;;;;;5078618;28;20526;-81
2021/08/20 09:33:13;;;;;;;5.50;3.20;;;24.60;42.90;;;;;;5076362;28;20448;-81
2021/08/20 09:35:41;;;;;;;4.30;3.90;;;24.50;43.00;;;;;;5077699;28;20502;-81
2021/08/20 09:38:10;;;;;;;4.33;3.80;;;24.40;42.90;;;;;;5076198;28;20443;-81
2021/08/20 09:40:39;;;;;;;3.80;3.50;;;24.50;43.00;;;;;;5073502;28;20483;-81
2021/08/20 09:43:19;;;;;;;4.20;3.80;;;24.80;41.80;;;;;;5074097;28;20515;-82
2021/08/20 09:46:14;;;;;;;4.50;4.10;;;25.00;41.20;;;;;;5070891;28;20975;-82
2021/08/20 09:48:52;;;;;;;3.53;3.23;;;25.30;41.20;;;;;;5068262;28;20496;-81
2021/08/20 09:51:38;;;;;;;3.67;3.20;;;25.40;40.20;;;;;;5068498;28;20463;-81
2021/08/20 09:54:07;;;;;;;3.87;3.50;;;25.30;37.30;;;;;;5066702;28;20451;-80
2021/08/20 09:56:37;;;;;;;3.70;3.40;;;25.10;39.50;;;;;;5074654;28;20519;-81
2021/08/20 09:59:06;;;;;;;8.97;4.30;;;25.10;39.50;;;;;;5067492;28;20412;-80
2021/08/20 10:01:35;;;;;;;5.10;4.10;;;25.20;39.90;;;;;;5074917;28;20490;-80
2021/08/20 10:04:03;;;;;;;3.73;3.47;;;25.00;39.40;;;;;;5073588;28;20568;-81
2021/08/20 10:06:33;;;;;;;4.23;3.43;;;24.80;39.80;;;;;;5071082;28;20457;-80
2021/08/20 10:09:04;;;;;;;3.53;3.10;;;25.00;38.40;;;;;;5069442;28;20804;-81
2021/08/20 10:11:34;;;;;;;3.43;3.13;;;25.40;37.50;;;;;;5069787;28;20427;-81
2021/08/20 10:14:04;;;;;;;3.53;3.23;;;25.70;36.20;;;;;;5069828;28;20483;-82
2021/08/20 10:16:33;;;;;;;3.70;3.40;;;25.90;36.50;;;;;;5071160;28;20770;-81
2021/08/20 10:19:01;;;;;;;5.27;3.50;;;25.80;35.40;;;;;;5071891;28;20477;-83
2021/08/20 10:21:31;;;;;;;4.23;3.40;;;25.80;35.30;;;;;;5071848;28;20481;-83
2021/08/20 10:23:59;;;;;;;3.30;3.00;;;25.80;34.60;;;;;;5070311;28;20538;-82
2021/08/20 10:26:26;;;;;;;3.47;3.17;;;25.60;35.40;;;;;;5072320;28;20483;-82
2021/08/20 10:28:54;;;;;;;3.13;2.83;;;25.40;35.20;;;;;;5070365;28;20453;-81
2021/08/20 10:31:24;;;;;;;5.63;3.50;;;25.30;35.30;;;;;;5071203;28;20558;-81
2021/08/20 10:33:51;;;;;;;4.17;3.10;;;25.20;36.00;;;;;;5069726;28;20503;-83
2021/08/20 10:36:36;;;;;;;3.93;3.50;;;25.30;36.20;;;;;;5071248;28;20530;-81
2021/08/20 10:39:03;;;;;;;6.13;3.60;;;25.00;36.00;;;;;;5071452;28;20426;-80
2021/08/20 10:41:30;;;;;;;6.50;3.30;;;24.80;37.20;;;;;;5073578;28;20480;-81
2021/08/20 10:44:00;;;;;;;3.50;3.07;;;24.80;36.40;;;;;;5071217;28;20473;-82
2021/08/20 10:47:07;;;;;;;3.53;3.20;;;24.80;35.40;;;;;;5071870;28;20440;-80
2021/08/20 10:50:07;;;;;;;4.67;2.77;;;24.90;35.40;;;;;;5078657;28;20450;-79
2021/08/20 10:52:37;;;;;;;4.73;2.90;;;25.20;33.30;;;;;;5072687;28;20411;-80
2021/08/20 10:55:20;;;;;;;3.90;3.00;;;25.60;33.50;;;;;;5078456;28;20436;-82
2021/08/20 10:58:12;;;;;;;3.30;3.10;;;25.60;33.50;;;;;;5074848;28;20435;-82
2021/08/20 11:00:53;;;;;;;2.77;2.57;;;25.80;33.70;;;;;;5067286;28;20511;-82
2021/08/20 11:03:41;;;;;;;3.43;3.13;;;25.90;32.40;;;;;;5066515;28;20425;-81
2021/08/20 11:06:09;;;;;;;4.77;3.30;;;26.10;32.20;;;;;;5068234;28;20444;-82
2021/08/20 11:08:39;;;;;;;2.97;2.77;;;26.30;31.80;;;;;;5067444;28;20427;-82
2021/08/20 11:11:46;;;;;;;3.07;2.77;;;26.30;31.90;;;;;;5064884;28;20448;-82
2021/08/20 11:14:27;;;;;;;3.50;3.20;;;26.40;30.80;;;;;;5078719;28;20436;-81
2021/08/20 11:16:54;;;;;;;3.77;2.87;;;26.50;31.80;;;;;;5078523;28;20455;-82
2021/08/20 11:19:51;;;;;;;3.03;2.83;;;26.30;31.60;;;;;;5078428;28;20457;-79
2021/08/20 11:22:27;;;;;;;6.40;2.80;;;26.70;30.70;;;;;;5078209;28;20450;-79
2021/08/20 11:25:26;;;;;;;3.03;2.80;;;27.10;30.10;;;;;;5077258;28;20469;-81
2021/08/20 11:28:06;;;;;;;3.30;3.00;;;27.10;30.30;;;;;;5075600;28;20424;-80
2021/08/20 11:30:38;;;;;;;3.10;2.80;;;26.90;29.40;;;;;;5057495;28;20422;-82
2021/08/20 11:33:10;;;;;;;3.80;3.10;;;26.60;30.70;;;;;;5071223;28;20418;-82
2021/08/20 11:35:37;;;;;;;3.93;2.73;;;26.80;30.10;;;;;;5069325;28;20460;-82
2021/08/20 11:38:06;;;;;;;3.50;3.03;;;26.90;29.30;;;;;;5068336;28;20408;-82
2021/08/20 11:40:33;;;;;;;2.43;2.23;;;26.90;28.50;;;;;;5072794;28;20484;-82
2021/08/20 11:43:09;;;;;;;4.33;3.00;;;26.90;29.40;;;;;;5072501;28;20449;-80
2021/08/20 11:45:37;;;;;;;3.77;2.90;;;26.90;29.30;;;;;;5075734;28;20457;-80
2021/08/20 11:48:05;;;;;;;3.03;2.73;;;27.00;29.50;;;;;;5075534;28;20437;-80
2021/08/20 11:50:34;;;;;;;5.17;2.80;;;26.90;28.10;;;;;;5075674;28;20428;-82
2021/08/20 11:53:01;;;;;;;4.33;2.93;;;26.80;28.40;;;;;;5072338;28;20428;-82
2021/08/20 11:55:30;;;;;;;3.83;2.60;;;26.60;29.30;;;;;;5071605;28;20455;-81
2021/08/20 11:57:57;;;;;;;3.10;2.40;;;26.90;27.90;;;;;;5076416;28;20448;-80
2021/08/20 12:00:37;;;;;;;4.80;2.87;;;27.10;25.40;;;;;;5070940;28;20437;-82
2021/08/20 12:03:09;;;;;;;2.57;2.37;;;27.10;26.20;;;;;;5068443;28;20484;-81
2021/08/20 12:05:36;;;;;;;3.60;2.90;;;27.30;26.50;;;;;;5068353;28;20471;-81
2021/08/20 12:08:19;;;;;;;2.90;2.70;;;27.50;25.70;;;;;;5072764;28;20456;-79
2021/08/20 12:10:49;;;;;;;3.57;2.50;;;27.70;25.70;;;;;;5074292;28;20604;-80
2021/08/20 12:13:16;;;;;;;2.53;2.33;;;27.60;25.70;;;;;;5064733;28;20511;-81
2021/08/20 12:15:43;;;;;;;3.37;2.00;;;28.00;23.70;;;;;;5071787;28;20461;-81
2021/08/20 12:18:21;;;;;;;2.37;2.17;;;28.10;23.20;;;;;;5068663;28;20483;-80
2021/08/20 12:20:48;;;;;;;3.13;2.50;;;28.00;22.90;;;;;;5073781;28;20463;-81
2021/08/20 12:23:16;;;;;;;2.60;2.40;;;27.90;23.20;;;;;;5068269;28;20441;-81
2021/08/20 12:25:43;;;;;;;3.77;2.53;;;27.90;24.50;;;;;;5066989;28;20834;-80
2021/08/20 12:28:16;;;;;;;3.13;2.80;;;27.90;25.00;;;;;;5066438;28;20524;-82
2021/08/20 12:30:45;;;;;;;2.80;2.60;;;27.70;25.80;;;;;;5071700;28;20438;-82
2021/08/20 12:33:12;;;;;;;2.50;2.30;;;27.60;24.00;;;;;;5073586;28;20420;-80
2021/08/20 12:35:49;;;;;;;3.03;2.73;;;27.10;25.40;;;;;;5077406;28;20465;-80
2021/08/20 12:38:18;;;;;;;2.90;2.60;;;27.30;25.50;;;;;;5077169;28;20448;-80
2021/08/20 12:40:47;;;;;;;3.67;2.40;;;27.60;25.70;;;;;;5077148;28;20423;-79
2021/08/20 12:43:32;;;;;;;2.70;2.50;;;27.70;25.80;;;;;;5077279;28;20477;-79
2021/08/20 12:46:11;;;;;;;2.77;2.57;;;27.70;25.80;;;;;;5077416;28;20413;-80
2021/08/20 12:48:40;;;;;;;4.70;2.93;;;27.70;25.80;;;;;;5076707;28;20422;-81
2021/08/20 12:51:09;;;;;;;3.10;2.40;;;27.60;25.70;;;;;;5076894;28;20434;-81
2021/08/20 12:53:38;;;;;;;2.63;2.40;;;27.50;25.30;;;;;;5076592;28;20424;-82
2021/08/20 12:56:06;;;;;;;3.30;3.00;;;27.40;25.40;;;;;;5076627;28;20455;-82
2021/08/20 12:58:36;;;;;;;3.00;2.67;;;27.30;24.80;;;;;;5079143;28;20437;-81